Latest Coastal Weather Observations for Avalon

IDV60701

Issued at 3:21 am EDT Thursday 8 December 2016 (issued every 10 minutes, with the page automatically refreshed every 10 minutes)

About coastal observations | Map of coastal stations | Coastal observations for VIC | Marine services | Other Formats
Station Details ID: 087113 Name: AVALON AIRPORT Lat: -38.03 Lon: 144.48 Height: 10.6 m
Data from the previous 72 hours. | See also: Recent months at Avalon
Date/Time
EDT
Temp
°C
Wind Pressure Rain since
9am
mm
Weather Cloud Vis
km
Sea
Height
m
Swell
Dir  Spd
kts
Gust
kts
hPa Trend Height
m
Period
s
Dir
08/03:00am 19.7 NE 8 10 998.3 - 0.0 - Cloudy 10 - - - -
08/02:30am 19.9 ENE 7 8 998.9 - 0.0 - Partly cloudy 10 - - - -
08/02:00am 18.2 NE 7 8 1000.0 - 0.0 - Cloudy 10 - - - -
08/01:30am 17.3 NE 7 8 1001.0 - 0.0 - Partly cloudy 10 - - - -
08/01:00am 16.9 NE 8 10 1001.9 - 0.0 - Partly cloudy 10 - - - -
08/12:30am 16.4 ENE 8 11 1002.7 - 0.0 - Partly cloudy 10 - - - -
08/12:00am 16.4 ENE 5 7 1003.6 - 0.0 - Cloudy 10 - - - -
 
Date/Time
EDT
Temp
°C
Wind Pressure Rain since
9am
mm
Weather Cloud Vis
km
Sea
Height
m
Swell
Dir  Spd
kts
Gust
kts
hPa Trend Height
m
Period
s
Dir
07/11:30pm 16.6 CALM 0 0 1004.6 - 0.0 - Cloudy 10 - - - -
07/11:00pm 15.7 NNW 3 5 1004.9 - 0.0 - Partly cloudy 10 - - - -
07/10:30pm 16.6 NW 5 5 1005.5 - 0.0 - - 10 - - - -
07/10:00pm 17.7 NNE 3 5 1005.9 - 0.0 - - 10 - - - -
07/09:30pm 18.7 ENE 7 10 1006.3 - 0.0 - - 10 - - - -
07/09:00pm 18.8 ENE 5 8 1006.7 - 0.0 - - 10 - - - -
07/08:30pm 19.9 E 9 13 1007.0 - 0.0 - - 10 - - - -
07/08:00pm 20.9 ESE 12 15 1007.2 - 0.0 - - 10 - - - -
07/07:30pm 21.7 ESE 13 17 1007.3 - 0.0 - - 10 - - - -
07/07:00pm 22.5 ESE 14 17 1007.6 - 0.0 - - 10 - - - -
07/06:30pm 22.9 ESE 14 18 1008.0 - 0.0 - - 10 - - - -
07/06:00pm 24.0 ESE 13 17 1008.1 - 0.0 - - 10 - - - -
07/05:30pm 24.1 ESE 14 16 1008.5 - 0.0 - - 10 - - - -
07/05:00pm 24.6 ESE 13 15 1009.2 - 0.0 - - 10 - - - -
07/04:30pm 23.9 ESE 13 15 1009.7 - 0.0 - - 10 - - - -
07/04:00pm 23.9 ESE 12 15 1010.4 - 0.0 - - 10 - - - -
07/03:30pm 23.4 ESE 12 16 1011.0 - 0.0 - - 10 - - - -
07/03:00pm 22.6 SE 13 17 1011.5 - 0.0 - - 10 - - - -
07/02:30pm 22.4 ESE 14 17 1011.9 - 0.0 - - 10 - - - -
07/02:00pm 21.5 ESE 14 17 1012.5 - 0.0 - - 10 - - - -
07/01:30pm 21.1 ESE 14 18 1013.1 - 0.0 - - 10 - - - -
07/01:00pm 21.2 SE 13 16 1013.6 - 0.0 - - 10 - - - -
07/12:30pm 21.5 SE 11 17 1014.0 - 0.0 - - 10 - - - -
07/12:00pm 20.7 ESE 13 17 1014.4 - 0.0 - - 10 - - - -
07/11:30am 20.6 SE 12 17 1014.6 - 0.0 - - 10 - - - -
07/11:00am 20.1 ESE 6 9 1015.0 - 0.0 - - 10 - - - -
07/10:30am 19.3 NE 7 11 1015.1 - 0.0 - - 10 - - - -
07/10:00am 18.3 NE 6 11 1015.5 - 0.0 - - 10 - - - -
07/09:30am 16.9 NNE 7 10 1015.5 - 0.0 - - 10 - - - -
07/09:00am 16.0 NE 6 9 1015.4 - 0.0 - - 10 - - - -
07/08:30am 14.7 N 1 5 1015.6 - 0.0 - - 10 - - - -
07/08:00am 12.5 NW 1 3 1015.6 - 0.0 - - 10 - - - -
07/07:30am 11.0 WNW 3 4 1015.6 - 0.0 - - 10 - - - -
07/07:00am 9.5 NW 4 4 1015.4 - 0.0 - - 10 - - - -
07/06:30am 8.3 W 4 5 1015.4 - 0.0 - - 10 - - - -
07/06:00am 7.7 W 4 4 1015.5 - 0.0 - - 10 - - - -
07/05:30am 7.0 NW 5 5 1015.2 - 0.0 - - 10 - - - -
07/05:00am 7.7 WNW 4 5 1014.7 - 0.0 - - 10 - - - -
07/04:30am 8.3 WNW 3 4 1014.4 - 0.0 - - 10 - - - -
07/04:00am 7.6 WNW 3 4 1014.3 - 0.0 - - 10 - - - -
07/03:30am 7.7 NW 4 5 1014.6 - 0.0 - - 10 - - - -
07/03:00am 7.7 NNW 5 6 1014.5 - 0.0 - - 10 - - - -
07/02:30am 7.7 NNW 6 6 1015.0 - 0.0 - - 10 - - - -
07/02:00am 8.1 WNW 4 5 1015.2 - 0.0 - - 10 - - - -
07/01:30am 9.1 WNW 4 5 1015.6 - 0.0 - - 10 - - - -
07/01:00am 9.2 N 5 6 1015.7 - 0.0 - - 10 - - - -
07/12:30am 10.0 N 4 5 1015.9 - 0.0 - - 10 - - - -
07/12:00am 10.3 N 3 4 1016.1 - 0.0 - - 10 - - - -
 
Date/Time
EDT
Temp
°C
Wind Pressure Rain since
9am
mm
Weather Cloud Vis
km
Sea
Height
m
Swell
Dir  Spd
kts
Gust
kts
hPa Trend Height
m
Period
s
Dir
06/11:30pm 10.5 NNE 3 4 1016.1 - 0.0 - - 10 - - - -
06/11:00pm 11.9 SSE 5 5 1016.1 - 0.0 - - 10 - - - -
06/10:30pm 11.9 SSE 5 6 1016.3 - 0.0 - - 10 - - - -
06/10:00pm 12.0 SSE 5 6 1016.2 - 0.0 - - 10 - - - -
06/09:30pm 12.0 S 6 8 1015.8 - 0.0 - - 10 - - - -
06/09:00pm 13.1 SSE 7 8 1015.6 - 0.0 - - 10 - - - -
06/08:30pm 13.8 SSE 7 10 1015.5 - 0.0 - - 10 - - - -
06/08:00pm 15.5 S 11 15 1015.2 - 0.0 - - 10 - - - -
06/07:30pm 16.5 S 12 17 1014.9 - 0.0 - - 10 - - - -
06/07:00pm 16.9 S 14 18 1014.9 - 0.0 - - 10 - - - -
06/06:30pm 17.4 S 14 18 1014.7 - 0.0 - - 10 - - - -
06/06:00pm 18.0 S 15 19 1014.3 - 0.0 - - 10 - - - -
06/05:30pm 18.6 S 15 19 1013.9 - 0.0 - - 10 - - - -
06/05:00pm 19.4 S 15 20 1013.7 - 0.0 - - 10 - - - -
06/04:30pm 19.8 S 13 19 1013.6 - 0.0 - - 10 - - - -
06/04:00pm 20.1 S 14 17 1013.4 - 0.0 - - 10 - - - -
06/03:30pm 20.7 S 13 19 1013.5 - 0.0 - - 10 - - - -
06/03:00pm 19.9 SE 9 16 1013.6 - 0.0 - Mostly clear 10 - - - -
06/02:30pm 22.0 WSW 13 20 1013.4 - 0.0 - Partly cloudy 10 - - - -
06/02:00pm 21.7 WNW 12 21 1013.5 - 0.0 - Partly cloudy 10 - - - -
06/01:30pm 19.9 W 9 18 1013.5 - 0.0 - Partly cloudy 10 - - - -
06/01:00pm 20.6 W 10 15 1013.7 - 0.0 - Partly cloudy 10 - - - -
06/12:30pm 19.3 WSW 9 16 1014.0 - 0.0 - Partly cloudy 10 - - - -
06/12:00pm 18.9 WSW 5 10 1014.2 - 0.0 - Mostly cloudy 10 - - - -
06/11:30am 17.9 W 6 10 1014.5 - 0.0 - Partly cloudy 10 - - - -
06/11:00am 17.4 W 5 8 1014.2 - 0.0 - Partly cloudy 10 - - - -
06/10:30am 16.3 SSW 4 9 1014.1 - 0.0 - Partly cloudy 10 - - - -
06/10:00am 16.0 SW 5 8 1014.3 - 0.0 - Partly cloudy 10 - - - -
06/09:30am 15.7 SSW 7 10 1014.6 - 0.0 - Partly cloudy 10 - - - -
06/09:00am 15.4 SW 7 9 1014.7 - 0.2 - Partly cloudy 10 - - - -
06/08:30am 14.7 SSW 7 8 1014.2 - 0.2 - Partly cloudy 10 - - - -
06/08:00am 14.4 SSW 8 11 1014.0 - 0.2 - Partly cloudy 10 - - - -
06/07:30am 14.5 SSW 7 8 1014.0 - 0.2 - Cloudy 10 - - - -
06/07:00am 14.2 SSW 6 8 1013.8 - 0.2 - Cloudy 10 - - - -
06/06:30am 14.1 SSW 7 8 1013.5 - 0.2 - Cloudy 10 - - - -
06/06:00am 14.0 SSW 6 7 1013.4 - 0.2 - Cloudy 10 - - - -
06/05:30am 14.0 SSW 5 6 1012.7 - 0.2 - Cloudy 10 - - - -
06/05:00am 13.9 SSW 5 5 1012.6 - 0.2 - Cloudy 10 - - - -
06/04:30am 13.9 SSW 4 5 1012.1 - 0.2 - Cloudy 10 - - - -
06/04:00am 13.9 S 4 6 1012.1 - 0.2 - Cloudy 10 - - - -
06/03:30am 14.0 SE 6 7 1011.6 - 0.2 - Cloudy 10 - - - -
06/03:00am 14.1 SSE 6 8 1011.9 - 0.2 - Cloudy 10 - - - -
06/02:30am 14.2 SSE 5 6 1012.7 - 0.2 - Cloudy 10 - - - -
06/02:00am 14.2 SSE 5 7 1013.0 - 0.2 - Cloudy 10 - - - -
06/01:30am 14.1 S 7 9 1013.3 - 0.2 - Cloudy 10 - - - -
06/01:00am 13.7 S 5 6 1013.7 - 0.2 - Partly cloudy 10 - - - -
06/12:30am 13.8 S 8 9 1013.6 - 0.2 - Partly cloudy 10 - - - -
06/12:00am 14.2 SSE 6 7 1013.8 - 0.2 - Cloudy 10 - - - -
 
Date/Time
EDT
Temp
°C
Wind Pressure Rain since
9am
mm
Weather Cloud Vis
km
Sea
Height
m
Swell
Dir  Spd
kts
Gust
kts
hPa Trend Height
m
Period
s
Dir
05/11:30pm 14.1 SE 7 8 1013.9 - 0.2 - Partly cloudy 10 - - - -
05/11:00pm 14.3 SE 6 7 1014.6 - 0.2 - Cloudy 10 - - - -
05/10:30pm 14.3 SSE 7 10 1015.0 - 0.2 - Partly cloudy 10 - - - -
05/10:00pm 14.5 SSE 8 11 1014.9 - 0.2 - Partly cloudy 10 - - - -
05/09:30pm 14.8 S 9 12 1014.8 - 0.2 - Partly cloudy 10 - - - -
05/09:00pm 15.0 S 9 12 1014.7 - 0.2 - Cloudy 10 - - - -
05/08:30pm 14.9 S 12 16 1013.7 - 0.2 - Partly cloudy 10 - - - -
05/08:00pm 15.3 S 12 16 1013.6 - 0.2 - Partly cloudy 10 - - - -
05/07:30pm 15.7 SSE 13 16 1013.8 - 0.2 - Partly cloudy 10 - - - -
05/07:00pm 16.3 SSE 11 17 1013.9 - 0.2 - Partly cloudy 10 - - - -
05/06:30pm 16.3 S 14 18 1013.6 - 0.2 - Partly cloudy 10 - - - -
05/06:00pm 17.4 S 14 20 1013.0 - 0.2 - Mostly clear 10 - - - -
05/05:30pm 17.9 S 17 22 1012.6 - 0.2 - Partly cloudy 10 - - - -
05/05:00pm 18.5 S 18 22 1012.4 - 0.2 - Partly cloudy 10 - - - -
05/04:30pm 19.0 S 17 21 1012.6 - 0.2 - - 10 - - - -
05/04:00pm 19.5 S 16 20 1012.4 - 0.2 - - 10 - - - -
05/03:30pm 20.3 S 13 19 1012.3 - 0.2 - - 10 - - - -
05/03:00pm 21.4 S 14 19 1011.3 - 0.2 - - 10 - - - -
05/02:30pm 21.3 S 11 18 1011.7 - 0.2 - - 10 - - - -
05/02:00pm 21.5 S 8 14 1012.0 - 0.2 - - 10 - - - -
05/01:30pm 22.4 S 10 16 1011.9 - 0.2 - - 10 - - - -
05/01:00pm 21.7 S 11 16 1011.8 - 0.2 - - 10 - - - -
05/12:30pm 22.1 SW 13 18 1011.7 - 0.2 - Partly cloudy 10 - - - -
05/12:00pm 21.5 W 11 16 1012.0 - 0.2 Recent precip. - 10 - - - -
05/11:30am 20.4 WSW 12 20 1012.2 - 0.0 - - 10 - - - -
05/11:00am 21.1 WSW 11 15 1012.1 - 0.0 - - 10 - - - -
05/10:30am 19.2 WSW 14 21 1012.1 - 0.0 - Partly cloudy 10 - - - -
05/10:00am 18.7 WSW 13 21 1011.9 - 0.0 - Partly cloudy 10 - - - -
05/09:30am 18.2 W 13 19 1012.0 - 0.0 - Partly cloudy 10 - - - -
05/09:00am 17.1 WSW 14 19 1011.9 - 0.6 - Cloudy 10 - - - -
05/08:30am 16.4 WSW 13 19 1011.4 - 0.6 - Partly cloudy 10 - - - -
05/08:00am 16.2 WSW 17 23 1010.8 - 0.6 - Partly cloudy 10 - - - -
05/07:30am 16.4 WSW 12 17 1010.1 - 0.6 - Partly cloudy 10 - - - -
05/07:00am 16.5 WSW 17 22 1009.5 - 0.6 - Cloudy 10 - - - -
05/06:30am 16.5 W 13 17 1009.0 - 0.6 - Cloudy 10 - - - -
05/06:00am 16.7 WSW 15 21 1008.2 - 0.6 - Cloudy 10 - - - -
05/05:30am 17.1 W 18 26 1007.8 - 0.6 - Partly cloudy 10 - - - -
05/05:00am 18.2 W 19 27 1006.7 - 0.6 - Partly cloudy 10 - - - -
05/04:30am 21.6 WNW 17 28 1005.3 - 0.6 - Partly cloudy 10 - - - -
05/04:29am 22.2 WNW 16 28 1005.2 - 0.6 - Partly cloudy 10 - - - -
05/04:00am 23.9 NW 14 17 1004.0 - 0.6 - Cloudy 10 - - - -
05/03:30am 23.5 NNW 16 22 1003.4 - 0.6 - Partly cloudy 10 - - - -

Other Formats:

Comma delimited format used in spreadsheet applications
http://www.bom.gov.au/fwo/IDV60701/IDV60701.94854.axf

JavaScript Object Notation format (JSON) in row-major order
http://www.bom.gov.au/fwo/IDV60701/IDV60701.94854.json